Brownsdale, Minnesota
Current Conditions -  °F | °C
As of 7:15 AM on Friday 31 Oct 2014 (Local Time) from KAUM Reporting Station
Clear Clear  
Wind Chill: 14°   Ceiling: Unl
Heat Index: 25°   Visibility: 10mi
Dew Point: 18°   Wind: 12mph
Humidity: 74%   Direction: 350°N
Pressure: 30.43"   Gusts: 18mph
Location:  43.74°N, 92.87°W
Report Text: KAUM 311215Z AUTO 35010G16KT 10SM CLR M04/M08 A3043 RMK AO2
Loading
Personal Weather Stations






























Interactive Weather Map
Tropical Storm Tracking
New forecast layout! Learn more

10-Day Weather Forecast

Advertisements
Track Severe Weather on mobile